Time;durP1;ratioP1;P1;durP2;ratioP2;P2;SDS_P1;SDS_P2;PMS_P1;PMS_P2;Temp;Humidity;BMP_temperature;BMP_pressure;BME280_temperature;BME280_humidity;BME280_pressure;Samples;Min_cycle;Max_cycle;Signal;HPM_P1;HPM_P2
2022/08/24 00:01:08;;;;;;;2.70;2.20;;;;;;;;;;5089644;28;20173;-79
2022/08/24 00:03:35;;;;;;;4.37;2.50;;;;;;;;;;5087224;28;20198;-79
2022/08/24 00:06:02;;;;;;;3.27;2.20;;;;;;;;;;5089180;28;20267;-76
2022/08/24 00:08:29;;;;;;;3.60;2.43;;;;;;;;;;5084705;28;20180;-78
2022/08/24 00:10:55;;;;;;;3.10;2.10;;;;;;;;;;5079930;28;20238;-76
2022/08/24 00:13:21;;;;;;;2.53;2.10;;;;;;;;;;5087742;28;20220;-76
2022/08/24 00:15:47;;;;;;;3.23;2.27;;;;;;;;;;5105357;28;20255;-76
2022/08/24 00:18:13;;;;;;;2.70;2.50;;;;;;;;;;5096408;28;20299;-76
2022/08/24 00:20:40;;;;;;;3.70;2.07;;;;;;;;;;5087138;28;20667;-76
2022/08/24 00:23:06;;;;;;;3.50;2.30;;;;;;;;;;5093141;28;20197;-76
2022/08/24 00:25:33;;;;;;;2.50;2.30;;;;;;;;;;5083517;28;20629;-76
2022/08/24 00:28:00;;;;;;;5.50;2.40;;;;;;;;;;5087953;28;20176;-78
2022/08/24 00:30:26;;;;;;;2.50;2.30;;;;;;;;;;5090003;28;20187;-77
2022/08/24 00:32:53;;;;;;;3.30;2.37;;;;;;;;;;5086676;28;20216;-77
2022/08/24 00:35:20;;;;;;;2.27;2.07;;;;;;;;;;5087609;28;20185;-77
2022/08/24 00:37:47;;;;;;;3.10;2.30;;;;;;;;;;5088931;28;20648;-77
2022/08/24 00:40:15;;;;;;;3.43;2.30;;;;;;;;;;5082020;28;20173;-77
2022/08/24 00:42:41;;;;;;;3.60;2.40;;;;;;;;;;5089332;28;20755;-77
2022/08/24 00:45:08;;;;;;;3.57;2.57;;;;;;;;;;5091389;28;20238;-80
2022/08/24 00:47:41;;;;;;;2.60;2.40;;;;;;;;;;5103809;28;20255;-78
2022/08/24 00:50:11;;;;;;;4.03;2.50;;;;;;;;;;5085972;28;20176;-77
2022/08/24 00:52:40;;;;;;;3.50;2.40;;;;;;;;;;5087800;28;20204;-77
2022/08/24 00:55:16;;;;;;;4.20;2.33;;;;;;;;;;5090201;28;20177;-80
2022/08/24 00:57:44;;;;;;;4.70;2.47;;;;;;;;;;5084295;28;20747;-80
2022/08/24 01:00:23;;;;;;;3.10;2.40;;;;;;;;;;5089004;28;20184;-79
2022/08/24 01:02:52;;;;;;;2.73;2.27;;;;;;;;;;5088426;28;20735;-77
2022/08/24 01:05:19;;;;;;;3.60;2.53;;;;;;;;;;5072815;28;20715;-76
2022/08/24 01:07:49;;;;;;;4.87;2.70;;;;;;;;;;5088536;28;20172;-77
2022/08/24 01:10:23;;;;;;;4.73;2.60;;;;;;;;;;5069265;28;20182;-79
2022/08/24 01:12:52;;;;;;;3.43;2.57;;;;;;;;;;5089904;28;20226;-77
2022/08/24 01:15:19;;;;;;;3.30;2.70;;;;;;;;;;5098596;27;20184;-76
2022/08/24 01:20:30;;;;;;;2.63;2.30;;;;;;;;;;5093250;28;20674;-83
2022/08/24 01:23:05;;;;;;;4.43;2.70;;;;;;;;;;5085819;28;20264;-77
2022/08/24 01:25:32;;;;;;;2.83;2.47;;;;;;;;;;5094025;28;20211;-77
2022/08/24 01:28:03;;;;;;;3.30;2.43;;;;;;;;;;5094379;28;20546;-77
2022/08/24 01:30:29;;;;;;;2.60;2.40;;;;;;;;;;5086006;28;20189;-77
2022/08/24 01:32:57;;;;;;;2.90;2.60;;;;;;;;;;5096252;28;20212;-78
2022/08/24 01:35:23;;;;;;;6.30;2.60;;;;;;;;;;5093549;28;20173;-77
2022/08/24 01:37:50;;;;;;;2.60;2.40;;;;;;;;;;5096979;28;20635;-78
2022/08/24 01:40:18;;;;;;;2.67;2.40;;;;;;;;;;5099150;28;20177;-77
2022/08/24 01:42:48;;;;;;;2.40;2.20;;;;;;;;;;5096754;28;20220;-77
2022/08/24 01:45:15;;;;;;;3.53;2.43;;;;;;;;;;5101101;28;20202;-77
2022/08/24 01:47:41;;;;;;;4.30;2.60;;;;;;;;;;5096892;28;20185;-76
2022/08/24 01:50:07;;;;;;;3.13;2.47;;;;;;;;;;5101210;28;20599;-76
2022/08/24 01:52:34;;;;;;;4.77;2.30;;;;;;;;;;5102404;28;20203;-77
2022/08/24 01:55:00;;;;;;;5.03;2.47;;;;;;;;;;5084039;28;20191;-79
2022/08/24 01:57:26;;;;;;;6.93;3.00;;;;;;;;;;5096923;28;20203;-77
2022/08/24 01:59:55;;;;;;;3.70;2.60;;;;;;;;;;5097230;28;20181;-77
2022/08/24 02:02:24;;;;;;;3.13;2.60;;;;;;;;;;5100253;28;20552;-77
2022/08/24 02:04:51;;;;;;;3.00;2.50;;;;;;;;;;5097343;28;20180;-78
2022/08/24 02:07:18;;;;;;;2.90;2.53;;;;;;;;;;5100446;28;20312;-77
2022/08/24 02:09:44;;;;;;;2.63;2.40;;;;;;;;;;5099324;28;20261;-77
2022/08/24 02:12:11;;;;;;;3.03;2.70;;;;;;;;;;5096367;28;20196;-79
2022/08/24 02:14:37;;;;;;;3.03;2.50;;;;;;;;;;5093563;28;20198;-78
2022/08/24 02:17:04;;;;;;;3.40;2.73;;;;;;;;;;5092434;28;20554;-77
2022/08/24 02:19:31;;;;;;;4.43;2.33;;;;;;;;;;5075281;28;20188;-80
2022/08/24 02:21:59;;;;;;;4.47;2.93;;;;;;;;;;5091851;28;20181;-76
2022/08/24 02:24:25;;;;;;;4.53;2.90;;;;;;;;;;5090928;28;20192;-79
2022/08/24 02:26:52;;;;;;;3.53;3.00;;;;;;;;;;5090554;28;20176;-79
2022/08/24 02:29:18;;;;;;;3.47;2.87;;;;;;;;;;5090218;28;20180;-76
2022/08/24 02:31:44;;;;;;;3.83;2.90;;;;;;;;;;5092942;28;20175;-76
2022/08/24 02:34:11;;;;;;;3.20;2.90;;;;;;;;;;5092704;28;20683;-77
2022/08/24 02:36:38;;;;;;;5.10;3.20;;;;;;;;;;5071252;28;20181;-76
2022/08/24 02:39:04;;;;;;;3.90;2.77;;;;;;;;;;5088924;28;20212;-77
2022/08/24 02:41:32;;;;;;;4.30;2.63;;;;;;;;;;5090377;28;20632;-77
2022/08/24 02:43:58;;;;;;;3.70;2.60;;;;;;;;;;5091442;28;20208;-77
2022/08/24 02:46:26;;;;;;;4.17;2.90;;;;;;;;;;5088333;28;20173;-76
2022/08/24 02:48:52;;;;;;;3.00;2.70;;;;;;;;;;5071531;28;20180;-77
2022/08/24 02:51:23;;;;;;;3.17;2.70;;;;;;;;;;5093166;28;20187;-77
2022/08/24 02:53:50;;;;;;;3.57;2.70;;;;;;;;;;5097564;28;20651;-77
2022/08/24 02:56:17;;;;;;;3.27;2.80;;;;;;;;;;5091573;28;20701;-80
2022/08/24 02:58:44;;;;;;;4.27;2.70;;;;;;;;;;5093783;28;20237;-77
2022/08/24 03:01:11;;;;;;;2.67;2.33;;;;;;;;;;5096015;28;20255;-77
2022/08/24 03:03:38;;;;;;;3.43;2.90;;;;;;;;;;5063701;28;20287;-77
2022/08/24 03:06:05;;;;;;;3.93;3.20;;;;;;;;;;5082318;28;20164;-79
2022/08/24 03:08:31;;;;;;;4.27;3.00;;;;;;;;;;5090948;28;20306;-77
2022/08/24 03:10:59;;;;;;;3.60;3.30;;;;;;;;;;5090719;28;20183;-77
2022/08/24 03:13:29;;;;;;;3.90;3.07;;;;;;;;;;5091465;28;20710;-77
2022/08/24 03:15:56;;;;;;;6.33;3.20;;;;;;;;;;5078389;28;20637;-77
2022/08/24 03:18:24;;;;;;;3.87;3.50;;;;;;;;;;5080469;28;20201;-76
2022/08/24 03:20:52;;;;;;;5.73;3.47;;;;;;;;;;5089477;28;20173;-80
2022/08/24 03:23:18;;;;;;;4.43;3.30;;;;;;;;;;5091377;28;20205;-77
2022/08/24 03:25:46;;;;;;;5.27;4.00;;;;;;;;;;5090904;28;20635;-76
2022/08/24 03:28:13;;;;;;;4.57;3.70;;;;;;;;;;5091041;28;20354;-78
2022/08/24 03:30:42;;;;;;;5.20;4.70;;;;;;;;;;5089099;28;20220;-77
2022/08/24 03:33:09;;;;;;;6.37;4.20;;;;;;;;;;5072970;28;20575;-79
2022/08/24 03:35:35;;;;;;;5.90;4.47;;;;;;;;;;5068203;28;20181;-77
2022/08/24 03:38:01;;;;;;;4.07;3.67;;;;;;;;;;5087875;28;20200;-80
2022/08/24 03:40:28;;;;;;;5.23;4.13;;;;;;;;;;5081235;28;20211;-79
2022/08/24 03:42:55;;;;;;;4.83;3.80;;;;;;;;;;5082207;28;20208;-77
2022/08/24 03:45:22;;;;;;;4.40;4.00;;;;;;;;;;5091293;28;20247;-79
2022/08/24 03:47:49;;;;;;;4.57;3.90;;;;;;;;;;5089813;28;20200;-76
2022/08/24 03:50:15;;;;;;;6.13;3.40;;;;;;;;;;5088539;28;20180;-77
2022/08/24 03:52:41;;;;;;;4.60;3.70;;;;;;;;;;5071680;28;20210;-77
2022/08/24 03:55:08;;;;;;;5.33;3.33;;;;;;;;;;5080776;28;20183;-76
2022/08/24 03:57:35;;;;;;;6.33;3.47;;;;;;;;;;5090498;28;20614;-77
2022/08/24 04:00:04;;;;;;;5.40;3.20;;;;;;;;;;5075850;28;20704;-81
2022/08/24 04:02:40;;;;;;;3.60;3.30;;;;;;;;;;5090661;28;20250;-78
2022/08/24 04:05:09;;;;;;;5.43;3.60;;;;;;;;;;5088684;28;20259;-77
2022/08/24 04:07:36;;;;;;;6.07;4.10;;;;;;;;;;5075578;28;20183;-77
2022/08/24 04:10:03;;;;;;;5.17;3.73;;;;;;;;;;5072830;28;20180;-77
2022/08/24 04:12:29;;;;;;;6.13;4.23;;;;;;;;;;5086208;28;20212;-77
2022/08/24 04:14:55;;;;;;;5.60;3.90;;;;;;;;;;5091277;28;20264;-77
2022/08/24 04:17:23;;;;;;;4.30;3.90;;;;;;;;;;5089882;28;20207;-76
2022/08/24 04:19:58;;;;;;;6.00;4.73;;;;;;;;;;5088722;28;20185;-77
2022/08/24 04:22:33;;;;;;;5.67;4.67;;;;;;;;;;5076157;28;20204;-77
2022/08/24 04:24:59;;;;;;;6.57;5.10;;;;;;;;;;5088328;28;20382;-78
2022/08/24 04:27:27;;;;;;;5.70;5.20;;;;;;;;;;5089866;28;20195;-79
2022/08/24 04:29:53;;;;;;;6.40;5.80;;;;;;;;;;5089950;28;20176;-78
2022/08/24 04:32:21;;;;;;;6.43;4.90;;;;;;;;;;5085408;28;20180;-77
2022/08/24 04:34:47;;;;;;;5.50;4.90;;;;;;;;;;5086122;28;20221;-76
2022/08/24 04:37:14;;;;;;;8.43;5.07;;;;;;;;;;5090090;28;20200;-77
2022/08/24 04:39:41;;;;;;;7.07;4.93;;;;;;;;;;5088894;28;20235;-77
2022/08/24 04:42:21;;;;;;;5.37;4.40;;;;;;;;;;5088541;28;20241;-76
2022/08/24 04:44:49;;;;;;;5.53;4.90;;;;;;;;;;5090535;28;20565;-77
2022/08/24 04:47:15;;;;;;;5.07;4.57;;;;;;;;;;5088769;28;20206;-76
2022/08/24 04:49:41;;;;;;;8.37;4.60;;;;;;;;;;5088583;28;20267;-77
2022/08/24 04:52:08;;;;;;;5.77;4.60;;;;;;;;;;5084385;28;20278;-79
2022/08/24 04:54:35;;;;;;;6.13;5.00;;;;;;;;;;5089457;28;20172;-76
2022/08/24 04:57:10;;;;;;;5.17;4.77;;;;;;;;;;5092967;28;20180;-77
2022/08/24 04:59:40;;;;;;;5.07;4.60;;;;;;;;;;5076582;28;20177;-78
2022/08/24 05:02:06;;;;;;;4.97;4.47;;;;;;;;;;5083840;28;20213;-76
2022/08/24 05:04:34;;;;;;;6.37;4.40;;;;;;;;;;5091312;28;20169;-76
2022/08/24 05:07:00;;;;;;;4.80;4.40;;;;;;;;;;5091884;28;20267;-76
2022/08/24 05:09:26;;;;;;;5.03;4.33;;;;;;;;;;5092655;28;20168;-76
2022/08/24 05:11:54;;;;;;;4.90;4.30;;;;;;;;;;5087944;28;20192;-79
2022/08/24 05:14:26;;;;;;;7.10;4.00;;;;;;;;;;5069091;28;20573;-77
2022/08/24 05:16:52;;;;;;;5.20;4.10;;;;;;;;;;5082968;28;20221;-77
2022/08/24 05:19:18;;;;;;;5.90;4.10;;;;;;;;;;5099617;28;20177;-76
2022/08/24 05:21:45;;;;;;;5.63;4.57;;;;;;;;;;5090824;28;20548;-76
2022/08/24 05:24:11;;;;;;;6.80;4.33;;;;;;;;;;5086250;28;20573;-79
2022/08/24 05:26:37;;;;;;;5.03;4.53;;;;;;;;;;5091875;28;20663;-79
2022/08/24 05:29:04;;;;;;;5.27;4.40;;;;;;;;;;5095596;28;20185;-77
2022/08/24 05:31:42;;;;;;;4.90;4.37;;;;;;;;;;5087767;28;20205;-76
2022/08/24 05:34:08;;;;;;;4.70;4.10;;;;;;;;;;5092320;28;20208;-77
2022/08/24 05:36:39;;;;;;;6.17;5.10;;;;;;;;;;5093690;28;20187;-76
2022/08/24 05:39:08;;;;;;;7.20;4.80;;;;;;;;;;5090931;28;20548;-76
2022/08/24 05:41:36;;;;;;;8.30;5.30;;;;;;;;;;5093143;28;20188;-77
2022/08/24 05:44:10;;;;;;;5.73;5.20;;;;;;;;;;5096817;28;20222;-79
2022/08/24 05:46:37;;;;;;;5.87;5.10;;;;;;;;;;5092894;28;20655;-76
2022/08/24 05:49:03;;;;;;;8.43;5.33;;;;;;;;;;5091812;28;20176;-76
2022/08/24 05:51:31;;;;;;;6.30;4.77;;;;;;;;;;5091292;28;20241;-76
2022/08/24 05:54:05;;;;;;;8.23;5.00;;;;;;;;;;5097651;28;20211;-77
2022/08/24 05:56:41;;;;;;;7.07;5.03;;;;;;;;;;5075832;28;20184;-84
2022/08/24 05:59:08;;;;;;;8.13;5.60;;;;;;;;;;5092157;28;20208;-76
2022/08/24 06:01:35;;;;;;;7.63;5.43;;;;;;;;;;5091535;28;20223;-76
2022/08/24 06:04:02;;;;;;;8.47;5.47;;;;;;;;;;5068933;28;20299;-77
2022/08/24 06:06:28;;;;;;;7.00;5.13;;;;;;;;;;5092097;28;20172;-78
2022/08/24 06:08:55;;;;;;;7.13;5.53;;;;;;;;;;5100276;28;20502;-76
2022/08/24 06:11:30;;;;;;;5.93;4.87;;;;;;;;;;5089324;28;20181;-75
2022/08/24 06:14:01;;;;;;;7.03;5.30;;;;;;;;;;5072321;28;20311;-78
2022/08/24 06:16:30;;;;;;;7.23;5.57;;;;;;;;;;5091974;28;20221;-80
2022/08/24 06:18:56;;;;;;;6.23;5.13;;;;;;;;;;5070067;28;20197;-78
2022/08/24 06:21:27;;;;;;;5.50;4.80;;;;;;;;;;5087608;28;20274;-76
2022/08/24 06:23:54;;;;;;;5.47;4.67;;;;;;;;;;5089614;28;20204;-78
2022/08/24 06:29:06;;;;;;;5.30;4.80;;;;;;;;;;5101034;28;20184;-77
2022/08/24 06:31:39;;;;;;;6.77;5.20;;;;;;;;;;5088303;28;20189;-77
2022/08/24 06:34:07;;;;;;;5.07;4.57;;;;;;;;;;5094266;28;20203;-77
2022/08/24 06:36:34;;;;;;;5.67;4.73;;;;;;;;;;5087810;28;20267;-78
2022/08/24 06:39:02;;;;;;;6.57;4.90;;;;;;;;;;5089084;28;20609;-77
2022/08/24 06:41:28;;;;;;;8.60;5.20;;;;;;;;;;5061875;28;20192;-77
2022/08/24 06:43:55;;;;;;;7.93;5.33;;;;;;;;;;5080100;28;20201;-76
2022/08/24 06:46:25;;;;;;;6.60;4.90;;;;;;;;;;5086157;28;20636;-78
2022/08/24 06:48:52;;;;;;;7.07;4.73;;;;;;;;;;5085824;28;20217;-78
2022/08/24 06:51:21;;;;;;;5.97;4.63;;;;;;;;;;5087314;28;20741;-74
2022/08/24 06:53:48;;;;;;;6.13;4.93;;;;;;;;;;5086694;28;20249;-77
2022/08/24 06:56:15;;;;;;;4.83;4.40;;;;;;;;;;5089160;28;20189;-78
2022/08/24 06:58:42;;;;;;;7.43;4.77;;;;;;;;;;5085912;28;20204;-77
2022/08/24 07:01:20;;;;;;;5.30;4.80;;;;;;;;;;5086255;28;20655;-78
2022/08/24 07:03:47;;;;;;;6.50;4.40;;;;;;;;;;5084181;28;20735;-77
2022/08/24 07:06:39;;;;;;;6.30;4.27;;;;;;;;;;5087565;28;20243;-77
2022/08/24 07:09:06;;;;;;;7.83;4.83;;;;;;;;;;5072943;28;20280;-78
2022/08/24 07:11:33;;;;;;;8.40;5.30;;;;;;;;;;5085791;28;20226;-79
2022/08/24 07:14:00;;;;;;;5.67;4.77;;;;;;;;;;5087807;28;20300;-77
2022/08/24 07:16:26;;;;;;;7.07;4.80;;;;;;;;;;5080965;28;20184;-75
2022/08/24 07:19:00;;;;;;;5.37;4.20;;;;;;;;;;5071668;28;20216;-79
2022/08/24 07:21:27;;;;;;;4.77;4.23;;;;;;;;;;5085243;28;20191;-78
2022/08/24 07:23:55;;;;;;;8.97;4.33;;;;;;;;;;5090954;28;21375;-79
2022/08/24 07:26:22;;;;;;;4.93;3.97;;;;;;;;;;5068035;28;20184;-79
2022/08/24 07:28:52;;;;;;;6.53;4.03;;;;;;;;;;5090532;28;20743;-79
2022/08/24 07:31:19;;;;;;;4.77;3.57;;;;;;;;;;5084818;28;20176;-76
2022/08/24 07:33:56;;;;;;;5.97;4.30;;;;;;;;;;5077913;28;20204;-77
2022/08/24 07:36:22;;;;;;;5.17;3.90;;;;;;;;;;5085306;28;20181;-77
2022/08/24 07:38:50;;;;;;;5.57;4.10;;;;;;;;;;5089411;28;20671;-76
2022/08/24 07:41:17;;;;;;;5.43;4.57;;;;;;;;;;5088269;28;20271;-76
2022/08/24 07:43:45;;;;;;;5.57;3.90;;;;;;;;;;5070223;28;20205;-76
2022/08/24 07:46:12;;;;;;;8.27;3.80;;;;;;;;;;5089800;28;20172;-77
2022/08/24 07:48:38;;;;;;;4.67;3.50;;;;;;;;;;5072467;28;20184;-75
2022/08/24 07:51:10;;;;;;;5.33;3.50;;;;;;;;;;5071297;28;20181;-77
2022/08/24 07:53:36;;;;;;;4.80;3.67;;;;;;;;;;5071610;28;20215;-77
2022/08/24 07:56:03;;;;;;;5.43;3.57;;;;;;;;;;5072772;28;20242;-75
2022/08/24 07:58:30;;;;;;;6.07;3.70;;;;;;;;;;5089420;28;20211;-75
2022/08/24 08:00:56;;;;;;;5.13;3.60;;;;;;;;;;5064887;28;20191;-77
2022/08/24 08:03:25;;;;;;;5.60;3.77;;;;;;;;;;5088922;28;20254;-76
2022/08/24 08:05:55;;;;;;;5.00;3.90;;;;;;;;;;5069317;28;20260;-75
2022/08/24 08:08:22;;;;;;;5.47;3.27;;;;;;;;;;5081273;28;20176;-75
2022/08/24 08:10:48;;;;;;;5.77;3.43;;;;;;;;;;5067540;28;20184;-75
2022/08/24 08:13:14;;;;;;;4.77;3.60;;;;;;;;;;5072220;28;20800;-75
2022/08/24 08:15:41;;;;;;;4.93;3.53;;;;;;;;;;5071205;28;20191;-78
2022/08/24 08:18:10;;;;;;;4.90;3.20;;;;;;;;;;5064454;28;20208;-78
2022/08/24 08:20:39;;;;;;;4.07;3.63;;;;;;;;;;5070571;28;20260;-75
2022/08/24 08:26:03;;;;;;;7.27;3.73;;;;;;;;;;5088536;28;20208;-75
2022/08/24 08:28:42;;;;;;;5.97;3.60;;;;;;;;;;5075595;28;20203;-75
2022/08/24 08:31:09;;;;;;;5.17;3.40;;;;;;;;;;5072808;28;20181;-77
2022/08/24 08:33:35;;;;;;;4.80;3.37;;;;;;;;;;5072886;28;20680;-75
2022/08/24 08:36:04;;;;;;;6.10;3.50;;;;;;;;;;5092650;28;20256;-75
2022/08/24 08:38:30;;;;;;;5.63;3.00;;;;;;;;;;5095151;28;20200;-78
2022/08/24 08:40:57;;;;;;;4.60;3.37;;;;;;;;;;5093221;28;20176;-78
2022/08/24 08:43:24;;;;;;;6.67;3.37;;;;;;;;;;5097915;28;20260;-77
2022/08/24 08:45:56;;;;;;;5.60;3.53;;;;;;;;;;5073186;28;20188;-76
2022/08/24 08:48:47;;;;;;;5.33;3.20;;;;;;;;;;5093455;28;20189;-78
2022/08/24 08:51:16;;;;;;;6.13;3.80;;;;;;;;;;5092385;28;20259;-79
2022/08/24 08:53:48;;;;;;;4.57;3.40;;;;;;;;;;5071513;28;20216;-76
2022/08/24 08:56:20;;;;;;;4.63;3.50;;;;;;;;;;5077083;28;20211;-77
2022/08/24 08:58:49;;;;;;;7.07;4.03;;;;;;;;;;5084235;28;20194;-73
2022/08/24 09:01:26;;;;;;;5.43;3.70;;;;;;;;;;5090553;28;20180;-74
2022/08/24 09:03:52;;;;;;;6.23;4.03;;;;;;;;;;5091206;28;20230;-75
2022/08/24 09:07:02;;;;;;;5.03;3.83;;;;;;;;;;5086364;28;20204;-77
2022/08/24 09:09:39;;;;;;;7.37;3.80;;;;;;;;;;5074091;28;20191;-74
2022/08/24 09:12:26;;;;;;;4.67;3.40;;;;;;;;;;5074019;28;20682;-73
2022/08/24 09:14:55;;;;;;;6.90;3.40;;;;;;;;;;5073980;28;20189;-74
2022/08/24 09:17:21;;;;;;;5.93;3.47;;;;;;;;;;5071846;28;20177;-74
2022/08/24 09:20:14;;;;;;;7.10;3.27;;;;;;;;;;5086718;28;20256;-74
2022/08/24 09:22:42;;;;;;;4.07;3.30;;;;;;;;;;5083844;28;20242;-74
2022/08/24 09:25:23;;;;;;;4.83;3.17;;;;;;;;;;5088162;28;20174;-77
2022/08/24 09:28:14;;;;;;;5.63;3.27;;;;;;;;;;5089926;28;20275;-75
2022/08/24 09:30:54;;;;;;;5.90;3.20;;;;;;;;;;5089359;28;20204;-76
2022/08/24 09:33:24;;;;;;;4.10;3.30;;;;;;;;;;5087379;28;20200;-74
2022/08/24 09:36:09;;;;;;;4.83;3.27;;;;;;;;;;5091647;28;20185;-74
2022/08/24 09:38:49;;;;;;;5.97;3.30;;;;;;;;;;5086993;28;20198;-76
2022/08/24 09:41:21;;;;;;;4.43;3.37;;;;;;;;;;5087621;28;20315;-74
2022/08/24 09:43:50;;;;;;;3.70;3.23;;;;;;;;;;5089262;28;20241;-74
2022/08/24 09:46:17;;;;;;;4.27;3.03;;;;;;;;;;5092873;28;20184;-75
2022/08/24 09:49:02;;;;;;;7.67;3.40;;;;;;;;;;5095815;28;20659;-77
2022/08/24 09:51:47;;;;;;;4.60;3.13;;;;;;;;;;5089474;28;20264;-74
2022/08/24 09:54:19;;;;;;;5.23;2.83;;;;;;;;;;5085974;28;20199;-74
2022/08/24 09:56:46;;;;;;;4.80;3.10;;;;;;;;;;5086621;28;20660;-76
2022/08/24 09:59:21;;;;;;;5.40;2.70;;;;;;;;;;5093092;28;20576;-74
2022/08/24 10:01:56;;;;;;;3.63;2.87;;;;;;;;;;5089243;28;20574;-75
2022/08/24 10:04:37;;;;;;;6.07;2.67;;;;;;;;;;5087160;28;20214;-73
2022/08/24 10:07:06;;;;;;;7.03;3.07;;;;;;;;;;5092358;28;20272;-74
2022/08/24 10:09:44;;;;;;;3.37;3.07;;;;;;;;;;5085320;28;20260;-78
2022/08/24 10:12:13;;;;;;;3.70;3.00;;;;;;;;;;5086206;28;20548;-75
2022/08/24 10:14:58;;;;;;;4.57;2.77;;;;;;;;;;5090315;28;20207;-78
2022/08/24 10:17:30;;;;;;;4.33;3.10;;;;;;;;;;5086182;28;20289;-78
2022/08/24 10:20:04;;;;;;;4.97;2.93;;;;;;;;;;5088226;28;20208;-77
2022/08/24 10:22:57;;;;;;;5.77;2.90;;;;;;;;;;5088515;28;20295;-78
2022/08/24 10:25:30;;;;;;;3.63;2.80;;;;;;;;;;5088090;28;20246;-78
2022/08/24 10:28:03;;;;;;;3.13;2.50;;;;;;;;;;5070606;28;20188;-78
2022/08/24 10:30:35;;;;;;;3.63;2.90;;;;;;;;;;5088846;28;20181;-77
2022/08/24 10:33:18;;;;;;;7.13;2.67;;;;;;;;;;5087872;28;20216;-78
2022/08/24 10:35:47;;;;;;;3.27;2.70;;;;;;;;;;5090152;28;20196;-79
2022/08/24 10:41:21;;;;;;;5.07;2.70;;;;;;;;;;5086946;28;20188;-78
2022/08/24 10:44:07;;;;;;;5.63;2.67;;;;;;;;;;5082811;28;20204;-78
2022/08/24 10:46:47;;;;;;;3.10;2.70;;;;;;;;;;5085219;28;20207;-77
2022/08/24 10:49:13;;;;;;;5.50;3.07;;;;;;;;;;5085246;28;20647;-78
2022/08/24 10:51:40;;;;;;;3.30;3.00;;;;;;;;;;5089336;28;20187;-77
2022/08/24 10:54:09;;;;;;;3.47;2.70;;;;;;;;;;5073413;28;20200;-77
2022/08/24 10:56:40;;;;;;;3.47;2.57;;;;;;;;;;5089331;28;20238;-77
2022/08/24 10:59:12;;;;;;;4.67;2.53;;;;;;;;;;5089316;28;20232;-77
2022/08/24 11:01:39;;;;;;;5.50;2.40;;;;;;;;;;5085655;28;20188;-79
2022/08/24 11:04:09;;;;;;;4.07;2.30;;;;;;;;;;5092610;28;20200;-78
2022/08/24 11:06:43;;;;;;;4.03;2.53;;;;;;;;;;5088438;28;20194;-78
2022/08/24 11:09:11;;;;;;;2.80;2.33;;;;;;;;;;5083949;28;20213;-76
2022/08/24 11:11:39;;;;;;;9.40;2.40;;;;;;;;;;5081303;28;20197;-73
2022/08/24 11:14:22;;;;;;;2.87;2.40;;;;;;;;;;5081078;28;20215;-75
2022/08/24 11:16:49;;;;;;;2.67;2.40;;;;;;;;;;5087799;28;20198;-77
2022/08/24 11:19:27;;;;;;;5.93;2.77;;;;;;;;;;5081683;28;20193;-74
2022/08/24 11:21:59;;;;;;;4.27;2.30;;;;;;;;;;5083713;28;20211;-74
2022/08/24 11:24:28;;;;;;;2.93;2.30;;;;;;;;;;5087753;28;20232;-74
2022/08/24 11:26:54;;;;;;;3.27;2.30;;;;;;;;;;5088085;28;20184;-74
2022/08/24 11:29:22;;;;;;;3.70;2.40;;;;;;;;;;5088006;28;20186;-74
2022/08/24 11:31:49;;;;;;;2.70;2.10;;;;;;;;;;5085205;28;20180;-75
2022/08/24 11:34:17;;;;;;;4.77;2.30;;;;;;;;;;5088372;28;20655;-75
2022/08/24 11:36:43;;;;;;;4.90;2.60;;;;;;;;;;5067900;28;20194;-75
2022/08/24 11:39:13;;;;;;;2.40;2.20;;;;;;;;;;5073185;28;20208;-76
2022/08/24 11:42:02;;;;;;;3.40;2.50;;;;;;;;;;5084491;28;20606;-76
2022/08/24 11:44:37;;;;;;;2.93;2.53;;;;;;;;;;5056779;28;20218;-75
2022/08/24 11:47:27;;;;;;;4.47;2.50;;;;;;;;;;5084822;28;20184;-76
2022/08/24 11:50:13;;;;;;;3.93;2.30;;;;;;;;;;5056812;28;20258;-76
2022/08/24 11:52:43;;;;;;;2.77;2.43;;;;;;;;;;5073209;28;20215;-76
2022/08/24 11:55:19;;;;;;;3.73;2.50;;;;;;;;;;5080912;28;20185;-76
2022/08/24 11:58:15;;;;;;;4.67;2.73;;;;;;;;;;5079052;28;20292;-76
2022/08/24 12:00:54;;;;;;;2.60;2.40;;;;;;;;;;5057531;28;20284;-76
2022/08/24 12:03:20;;;;;;;3.80;2.50;;;;;;;;;;5075748;28;20679;-75
2022/08/24 12:05:46;;;;;;;3.30;2.30;;;;;;;;;;5067305;28;20201;-77
2022/08/24 12:08:31;;;;;;;3.43;2.70;;;;;;;;;;5070160;28;20553;-76
2022/08/24 12:11:11;;;;;;;2.97;2.67;;;;;;;;;;5065831;28;20202;-76
2022/08/24 12:13:46;;;;;;;4.53;2.50;;;;;;;;;;5077010;28;20738;-78
2022/08/24 12:16:16;;;;;;;4.67;2.20;;;;;;;;;;5083235;28;20200;-74
2022/08/24 12:18:52;;;;;;;4.07;2.20;;;;;;;;;;5082579;28;20667;-76
2022/08/24 12:21:20;;;;;;;3.63;2.23;;;;;;;;;;5082421;28;20189;-75
2022/08/24 12:23:49;;;;;;;5.10;2.50;;;;;;;;;;5082578;28;20213;-72
2022/08/24 12:26:15;;;;;;;3.80;2.40;;;;;;;;;;5081436;28;20182;-75
2022/08/24 12:28:45;;;;;;;3.67;2.43;;;;;;;;;;5082498;28;20272;-77
2022/08/24 12:31:16;;;;;;;2.53;2.33;;;;;;;;;;5081822;28;20187;-74
2022/08/24 12:33:44;;;;;;;3.20;2.40;;;;;;;;;;5066297;28;20562;-76
2022/08/24 12:36:31;;;;;;;6.27;2.40;;;;;;;;;;5085594;28;20180;-74
2022/08/24 12:39:08;;;;;;;2.50;2.30;;;;;;;;;;5075556;28;20213;-72
2022/08/24 12:41:47;;;;;;;4.33;2.67;;;;;;;;;;5079065;28;20180;-71
2022/08/24 12:44:15;;;;;;;2.40;2.20;;;;;;;;;;5084103;28;20222;-77
2022/08/24 12:46:44;;;;;;;3.40;2.40;;;;;;;;;;5085747;28;20247;-73
2022/08/24 12:49:14;;;;;;;2.93;2.30;;;;;;;;;;5080503;28;20291;-74
2022/08/24 12:52:02;;;;;;;2.30;2.10;;;;;;;;;;5080704;28;20631;-76
2022/08/24 12:54:59;;;;;;;2.20;2.00;;;;;;;;;;5085628;28;20207;-73
2022/08/24 12:57:38;;;;;;;4.27;2.20;;;;;;;;;;5071550;28;20242;-74
2022/08/24 13:00:08;;;;;;;2.93;1.90;;;;;;;;;;5082473;28;20204;-73
2022/08/24 13:02:40;;;;;;;3.03;2.07;;;;;;;;;;5068731;28;20204;-72
2022/08/24 13:05:14;;;;;;;4.53;1.90;;;;;;;;;;5090074;28;20231;-73
2022/08/24 13:07:43;;;;;;;3.00;2.07;;;;;;;;;;5081533;28;20230;-74
2022/08/24 13:10:36;;;;;;;2.63;2.07;;;;;;;;;;5083313;28;20192;-73
2022/08/24 13:13:09;;;;;;;2.93;2.07;;;;;;;;;;5085266;28;20229;-75
2022/08/24 13:15:35;;;;;;;2.97;2.03;;;;;;;;;;5084656;28;20266;-74
2022/08/24 13:18:07;;;;;;;1.90;1.70;;;;;;;;;;5087354;28;20760;-72
2022/08/24 13:20:34;;;;;;;3.95;1.90;;;;;;;;;;5086927;28;20528;-74
2022/08/24 13:23:13;;;;;;;3.55;2.10;;;;;;;;;;5090429;28;20210;-73
2022/08/24 13:25:49;;;;;;;2.72;2.00;;;;;;;;;;5072612;28;20537;-75
2022/08/24 13:28:21;;;;;;;2.67;1.90;;;;;;;;;;5071462;28;20189;-72
2022/08/24 13:30:50;;;;;;;2.75;2.10;;;;;;;;;;5084074;28;20222;-73
2022/08/24 13:33:19;;;;;;;2.17;1.83;;;;;;;;;;5089007;28;20265;-74
2022/08/24 13:35:57;;;;;;;2.95;1.90;;;;;;;;;;5087294;28;20188;-73
2022/08/24 13:38:24;;;;;;;2.33;2.00;;;;;;;;;;5063804;28;20212;-73
2022/08/24 13:40:58;;;;;;;2.58;2.15;;;;;;;;;;5086417;28;20609;-74
2022/08/24 13:43:30;;;;;;;2.20;1.85;;;;;;;;;;5085540;28;20193;-73
2022/08/24 13:45:59;;;;;;;4.68;1.65;;;;;;;;;;5084044;28;20187;-74
2022/08/24 13:48:32;;;;;;;4.40;1.63;;;;;;;;;;5084044;28;20184;-73
2022/08/24 13:51:20;;;;;;;4.30;1.73;;;;;;;;;;5077932;28;20288;-75
2022/08/24 13:53:57;;;;;;;2.05;1.88;;;;;;;;;;5086212;28;20664;-73
2022/08/24 13:56:24;;;;;;;1.80;1.70;;;;;;;;;;5081700;28;20270;-73
2022/08/24 13:59:09;;;;;;;1.90;1.70;;;;;;;;;;5089599;28;20863;-75
2022/08/24 14:01:41;;;;;;;2.58;1.80;;;;;;;;;;5085004;28;20234;-75
2022/08/24 14:04:10;;;;;;;2.42;1.83;;;;;;;;;;5095088;28;20238;-76
2022/08/24 14:06:37;;;;;;;4.70;3.15;;;;;;;;;;5091985;28;20176;-75
2022/08/24 14:09:06;;;;;;;4.28;2.13;;;;;;;;;;5086882;28;20179;-75
2022/08/24 14:11:35;;;;;;;2.67;1.92;;;;;;;;;;5090411;28;20194;-75
2022/08/24 14:14:22;;;;;;;2.38;2.10;;;;;;;;;;5097338;28;20275;-75
2022/08/24 14:19:46;;;;;;;2.03;1.83;;;;;;;;;;5091046;28;20226;-75
2022/08/24 14:22:35;;;;;;;2.88;1.70;;;;;;;;;;5092824;28;20181;-75
2022/08/24 14:25:01;;;;;;;9.40;2.33;;;;;;;;;;5083491;28;20211;-75
2022/08/24 14:27:36;;;;;;;2.65;2.00;;;;;;;;;;5091441;28;20574;-75
2022/08/24 14:30:22;;;;;;;2.92;1.80;;;;;;;;;;5088407;28;20643;-75
2022/08/24 14:32:48;;;;;;;1.88;1.70;;;;;;;;;;5085163;28;20653;-75
2022/08/24 14:35:34;;;;;;;2.08;1.88;;;;;;;;;;5097103;28;20542;-75
2022/08/24 14:38:07;;;;;;;2.90;1.73;;;;;;;;;;5091544;28;20211;-75
2022/08/24 14:40:52;;;;;;;2.85;1.60;;;;;;;;;;5082319;28;20211;-75
2022/08/24 14:43:22;;;;;;;1.80;1.70;;;;;;;;;;5090380;28;20192;-75
2022/08/24 14:45:49;;;;;;;2.13;1.70;;;;;;;;;;5087957;28;20613;-74
2022/08/24 14:48:16;;;;;;;2.33;1.70;;;;;;;;;;5088179;28;20175;-75
2022/08/24 14:50:54;;;;;;;2.30;1.75;;;;;;;;;;5082809;28;20243;-74
2022/08/24 14:53:20;;;;;;;1.70;1.60;;;;;;;;;;5086557;28;20284;-75
2022/08/24 14:55:58;;;;;;;2.22;1.67;;;;;;;;;;5085521;28;20217;-74
2022/08/24 14:58:38;;;;;;;1.80;1.70;;;;;;;;;;5079930;28;20204;-75
2022/08/24 15:01:23;;;;;;;2.20;1.63;;;;;;;;;;5083254;28;20188;-75
2022/08/24 15:04:12;;;;;;;1.77;1.67;;;;;;;;;;5082610;28;20202;-74
2022/08/24 15:06:38;;;;;;;1.83;1.60;;;;;;;;;;5031927;28;20197;-75
2022/08/24 15:09:09;;;;;;;2.08;1.90;;;;;;;;;;5086939;28;20187;-74
2022/08/24 15:11:37;;;;;;;1.95;1.73;;;;;;;;;;5078178;28;20190;-74
2022/08/24 15:14:05;;;;;;;2.15;1.92;;;;;;;;;;5088808;28;20594;-75
2022/08/24 15:16:37;;;;;;;1.95;1.80;;;;;;;;;;5086880;28;20219;-75
2022/08/24 15:19:03;;;;;;;2.95;1.95;;;;;;;;;;5089067;28;20213;-73